Time;durP1;ratioP1;P1;durP2;ratioP2;P2;SDS_P1;SDS_P2;PMS_P1;PMS_P2;Temp;Humidity;BMP_temperature;BMP_pressure;BME280_temperature;BME280_humidity;BME280_pressure;Samples;Min_cycle;Max_cycle;Signal;HPM_P1;HPM_P2
2021/12/31 00:02:00;;;;;;;;;;;14.00;99.90;;;;;;4993169;28;19914;-78
2021/12/31 00:04:26;;;;;;;;;;;14.10;99.90;;;;;;4993174;28;19905;-78
2021/12/31 00:06:51;;;;;;;;;;;14.10;99.90;;;;;;4993698;28;19905;-77
2021/12/31 00:09:17;;;;;;;;;;;14.10;99.90;;;;;;4993434;28;20245;-77
2021/12/31 00:11:42;;;;;;;;;;;14.10;99.90;;;;;;4993161;28;19906;-81
2021/12/31 00:14:08;;;;;;;;;;;14.10;99.90;;;;;;4976937;28;20032;-78
2021/12/31 00:16:33;;;;;;;;;;;14.10;99.90;;;;;;4977162;28;19909;-77
2021/12/31 00:18:59;;;;;;;;;;;14.10;99.90;;;;;;4976775;28;19914;-78
2021/12/31 00:21:24;;;;;;;;;;;14.10;99.90;;;;;;4992896;28;19918;-76
2021/12/31 00:23:50;;;;;;;;;;;14.10;99.90;;;;;;4993258;28;19956;-77
2021/12/31 00:26:16;;;;;;;;;;;14.10;99.90;;;;;;4992993;28;19906;-78
2021/12/31 00:28:41;;;;;;;;;;;14.10;99.90;;;;;;4994492;28;19909;-76
2021/12/31 00:31:07;;;;;;;;;;;14.10;99.90;;;;;;4976674;28;20086;-76
2021/12/31 00:33:32;;;;;;;;;;;14.10;99.90;;;;;;4992839;28;20016;-76
2021/12/31 00:35:58;;;;;;;;;;;14.20;99.90;;;;;;4992700;28;20008;-76
2021/12/31 00:38:23;;;;;;;;;;;14.20;99.90;;;;;;4976791;28;20381;-77
2021/12/31 00:40:49;;;;;;;;;;;14.10;99.90;;;;;;4976769;28;20015;-77
2021/12/31 00:43:14;;;;;;;;;;;14.20;99.90;;;;;;4977418;28;19910;-78
2021/12/31 00:45:41;;;;;;;;;;;14.20;99.90;;;;;;4981263;28;20025;-77
2021/12/31 00:48:10;;;;;;;;;;;14.20;99.90;;;;;;4996847;28;19932;-78
2021/12/31 00:50:36;;;;;;;;;;;14.20;99.90;;;;;;4996301;28;19918;-78
2021/12/31 00:53:02;;;;;;;;;;;14.20;99.90;;;;;;4981007;28;19910;-75
2021/12/31 00:55:28;;;;;;;;;;;14.20;99.90;;;;;;4998247;28;19913;-77
2021/12/31 00:57:53;;;;;;;;;;;14.20;99.90;;;;;;4996770;28;20274;-78
2021/12/31 01:00:19;;;;;;;;;;;14.20;99.90;;;;;;4996681;28;20274;-77
2021/12/31 01:02:46;;;;;;;;;;;14.20;99.90;;;;;;4979699;28;20374;-78
2021/12/31 01:05:12;;;;;;;;;;;14.20;99.90;;;;;;4996382;28;19906;-77
2021/12/31 01:07:38;;;;;;;;;;;14.20;99.90;;;;;;4980321;28;20343;-78
2021/12/31 01:10:04;;;;;;;;;;;14.10;99.90;;;;;;4996940;28;19910;-78
2021/12/31 01:12:29;;;;;;;;;;;14.10;99.90;;;;;;4996223;28;20400;-78
2021/12/31 01:18:18;;;;;;;;;;;14.10;99.90;;;;;;4996277;28;19917;-76
2021/12/31 01:20:11;;;;;;;;;;;14.10;99.90;;;;;;4996666;28;19949;-77
2021/12/31 01:22:37;;;;;;;;;;;14.10;99.90;;;;;;4995893;28;20389;-78
2021/12/31 01:25:04;;;;;;;;;;;14.10;99.90;;;;;;4995899;28;19906;-78
2021/12/31 01:27:30;;;;;;;;;;;14.10;99.90;;;;;;4995527;28;20351;-77
2021/12/31 01:29:55;;;;;;;;;;;14.10;99.90;;;;;;4996019;28;19905;-77
2021/12/31 01:32:21;;;;;;;;;;;14.10;99.90;;;;;;4995932;28;19906;-78
2021/12/31 01:34:47;;;;;;;;;;;14.10;99.90;;;;;;4997438;28;19906;-79
2021/12/31 01:37:12;;;;;;;;;;;14.10;99.90;;;;;;4995712;28;19906;-78
2021/12/31 01:39:38;;;;;;;;;;;14.10;99.90;;;;;;4995699;28;19949;-77
2021/12/31 01:42:07;;;;;;;;;;;14.10;99.90;;;;;;4995455;28;19913;-78
2021/12/31 01:44:40;;;;;;;;;;;14.10;99.90;;;;;;4996571;28;19996;-78
2021/12/31 01:47:08;;;;;;;;;;;14.10;99.90;;;;;;4995807;28;19993;-78
2021/12/31 01:49:37;;;;;;;;;;;14.10;99.90;;;;;;4997012;28;19933;-77
2021/12/31 01:52:04;;;;;;;;;;;14.10;99.90;;;;;;4995420;28;19906;-78
2021/12/31 01:54:29;;;;;;;;;;;14.10;99.90;;;;;;4995163;28;19910;-77
2021/12/31 01:56:55;;;;;;;;;;;14.10;99.90;;;;;;4995415;28;20278;-80
2021/12/31 01:59:21;;;;;;;;;;;14.10;99.90;;;;;;4995239;28;19959;-77
2021/12/31 02:01:47;;;;;;;;;;;14.10;99.90;;;;;;4994906;28;19918;-77
2021/12/31 02:04:12;;;;;;;;;;;14.10;99.90;;;;;;4995135;28;19906;-78
2021/12/31 02:06:38;;;;;;;;;;;14.10;99.90;;;;;;4995403;28;19909;-77
2021/12/31 02:09:04;;;;;;;;;;;14.10;99.90;;;;;;4995166;28;19913;-77
2021/12/31 02:11:30;;;;;;;;;;;14.10;99.90;;;;;;4995099;28;19906;-77
2021/12/31 02:13:56;;;;;;;;;;;14.10;99.90;;;;;;4995029;28;19905;-82
2021/12/31 02:16:22;;;;;;;;;;;14.10;99.90;;;;;;4994723;28;20358;-76
2021/12/31 02:18:47;;;;;;;;;;;14.10;99.90;;;;;;4994899;28;19945;-76
2021/12/31 02:21:13;;;;;;;;;;;14.10;99.90;;;;;;4978467;28;19918;-77
2021/12/31 02:23:49;;;;;;;;;;;14.10;99.90;;;;;;4978601;28;19921;-76
2021/12/31 02:26:14;;;;;;;;;;;14.10;99.90;;;;;;4994945;28;19905;-76
2021/12/31 02:28:40;;;;;;;;;;;14.10;99.90;;;;;;4995367;28;19912;-76
2021/12/31 02:31:06;;;;;;;;;;;14.10;99.90;;;;;;4994586;28;19916;-78
2021/12/31 02:33:33;;;;;;;;;;;14.10;99.90;;;;;;4995385;28;20000;-78
2021/12/31 02:35:59;;;;;;;;;;;14.10;99.90;;;;;;4994839;28;19931;-80
2021/12/31 02:38:25;;;;;;;;;;;14.10;99.90;;;;;;4994586;28;19951;-77
2021/12/31 02:40:50;;;;;;;;;;;14.10;99.90;;;;;;4978557;28;20013;-77
2021/12/31 02:43:16;;;;;;;;;;;14.10;99.90;;;;;;4978932;28;20008;-77
2021/12/31 02:45:42;;;;;;;;;;;14.10;99.90;;;;;;4978603;28;19910;-76
2021/12/31 02:48:08;;;;;;;;;;;14.10;99.90;;;;;;4995522;28;19909;-76
2021/12/31 02:50:39;;;;;;;;;;;14.10;99.90;;;;;;4995503;28;19924;-77
2021/12/31 02:53:06;;;;;;;;;;;14.10;99.90;;;;;;4994702;28;20442;-76
2021/12/31 02:55:34;;;;;;;;;;;14.10;99.90;;;;;;4994333;28;19906;-76
2021/12/31 02:58:00;;;;;;;;;;;14.10;99.90;;;;;;4994003;28;19912;-81
2021/12/31 03:00:26;;;;;;;;;;;14.10;99.90;;;;;;4994256;28;19916;-76
2021/12/31 03:02:52;;;;;;;;;;;14.10;99.90;;;;;;4994433;28;19906;-75
2021/12/31 03:05:18;;;;;;;;;;;14.10;99.90;;;;;;4994554;28;20358;-76
2021/12/31 03:07:45;;;;;;;;;;;14.10;99.90;;;;;;4993808;28;20361;-77
2021/12/31 03:10:11;;;;;;;;;;;14.10;99.90;;;;;;4994999;28;19905;-77
2021/12/31 03:12:39;;;;;;;;;;;14.10;99.90;;;;;;4993942;28;19952;-77
2021/12/31 03:15:04;;;;;;;;;;;14.10;99.90;;;;;;4994067;28;19906;-78
2021/12/31 03:17:30;;;;;;;;;;;14.10;99.90;;;;;;4977966;28;19909;-77
2021/12/31 03:20:08;;;;;;;;;;;14.10;99.90;;;;;;4978196;28;20346;-77
2021/12/31 03:22:33;;;;;;;;;;;14.10;99.90;;;;;;4979624;28;19925;-76
2021/12/31 03:24:59;;;;;;;;;;;14.00;99.90;;;;;;4977673;28;19910;-76
2021/12/31 03:27:24;;;;;;;;;;;14.10;99.90;;;;;;4995473;28;19914;-79
2021/12/31 03:29:50;;;;;;;;;;;14.10;99.90;;;;;;4977739;28;19949;-77
2021/12/31 03:32:15;;;;;;;;;;;14.10;99.90;;;;;;4978019;28;19992;-78
2021/12/31 03:34:41;;;;;;;;;;;14.00;99.90;;;;;;4978162;28;19931;-76
2021/12/31 03:37:06;;;;;;;;;;;13.90;99.90;;;;;;4978083;28;19913;-78
2021/12/31 03:39:32;;;;;;;;;;;13.90;99.90;;;;;;4995336;28;20010;-78
2021/12/31 03:41:57;;;;;;;;;;;13.90;99.90;;;;;;4978552;28;19921;-78
2021/12/31 03:44:23;;;;;;;;;;;13.80;99.90;;;;;;4978543;28;19909;-76
2021/12/31 03:46:48;;;;;;;;;;;13.80;99.90;;;;;;4979081;28;19957;-76
2021/12/31 03:49:14;;;;;;;;;;;13.80;99.90;;;;;;4996742;28;19905;-77
2021/12/31 03:51:39;;;;;;;;;;;13.70;99.90;;;;;;4978798;28;20449;-76
2021/12/31 03:54:05;;;;;;;;;;;13.70;99.90;;;;;;4993809;28;20029;-80
2021/12/31 03:56:32;;;;;;;;;;;13.70;99.90;;;;;;4993763;28;19988;-78
2021/12/31 03:58:59;;;;;;;;;;;13.70;99.90;;;;;;4993281;28;19909;-77
2021/12/31 04:01:25;;;;;;;;;;;13.70;99.90;;;;;;4977616;28;19948;-77
2021/12/31 04:03:51;;;;;;;;;;;13.70;99.90;;;;;;4978250;28;19931;-77
2021/12/31 04:06:16;;;;;;;;;;;13.70;99.90;;;;;;4977288;28;19910;-77
2021/12/31 04:08:42;;;;;;;;;;;13.70;99.90;;;;;;4978082;28;19910;-77
2021/12/31 04:11:10;;;;;;;;;;;13.70;99.90;;;;;;4996666;28;19996;-81
2021/12/31 04:13:35;;;;;;;;;;;13.70;99.90;;;;;;4994772;28;19929;-78
2021/12/31 04:16:01;;;;;;;;;;;13.70;99.90;;;;;;4994273;28;19906;-77
2021/12/31 04:18:26;;;;;;;;;;;13.70;99.90;;;;;;4978087;28;19910;-78
2021/12/31 04:20:55;;;;;;;;;;;13.70;99.90;;;;;;4980986;28;19918;-77
2021/12/31 04:25:52;;;;;;;;;;;13.70;99.90;;;;;;4997297;28;20385;-77
2021/12/31 04:28:18;;;;;;;;;;;13.60;99.90;;;;;;4981431;28;19961;-78
2021/12/31 04:30:43;;;;;;;;;;;13.60;99.90;;;;;;4981474;28;19996;-78
2021/12/31 04:33:09;;;;;;;;;;;13.60;99.90;;;;;;4980669;28;19910;-77
2021/12/31 04:35:34;;;;;;;;;;;13.60;99.90;;;;;;4998316;28;20310;-77
2021/12/31 04:38:00;;;;;;;;;;;13.50;99.90;;;;;;4980822;28;20302;-78
2021/12/31 04:40:25;;;;;;;;;;;13.40;99.90;;;;;;4980572;28;19946;-78
2021/12/31 04:42:51;;;;;;;;;;;13.40;99.90;;;;;;4996779;28;20373;-77
2021/12/31 04:45:17;;;;;;;;;;;13.50;99.90;;;;;;4996647;28;19905;-77
2021/12/31 04:47:43;;;;;;;;;;;13.50;99.90;;;;;;4980794;28;19910;-78
2021/12/31 04:50:09;;;;;;;;;;;13.50;99.90;;;;;;4997710;28;19922;-78
2021/12/31 04:52:35;;;;;;;;;;;13.50;99.90;;;;;;4997843;28;19955;-79
2021/12/31 04:55:00;;;;;;;;;;;13.60;99.90;;;;;;4996676;28;19905;-75
2021/12/31 04:57:27;;;;;;;;;;;13.50;99.90;;;;;;4980614;28;19918;-77
2021/12/31 04:59:53;;;;;;;;;;;13.60;99.90;;;;;;4980290;28;19929;-77
2021/12/31 05:02:20;;;;;;;;;;;13.60;99.90;;;;;;4997003;28;20239;-77
2021/12/31 05:04:45;;;;;;;;;;;13.60;99.90;;;;;;4996438;28;20005;-78
2021/12/31 05:07:11;;;;;;;;;;;13.60;99.90;;;;;;4980017;28;19921;-77
2021/12/31 05:09:36;;;;;;;;;;;13.60;99.90;;;;;;4996231;28;19906;-75
2021/12/31 05:12:05;;;;;;;;;;;13.60;99.90;;;;;;4980465;28;19913;-76
2021/12/31 05:14:30;;;;;;;;;;;13.60;99.90;;;;;;4997255;28;19912;-77
2021/12/31 05:16:56;;;;;;;;;;;13.60;99.90;;;;;;4996999;28;19909;-78
2021/12/31 05:19:22;;;;;;;;;;;13.60;99.90;;;;;;4996279;28;19917;-78
2021/12/31 05:21:47;;;;;;;;;;;13.60;99.90;;;;;;4980245;28;20370;-77
2021/12/31 05:24:14;;;;;;;;;;;13.60;99.90;;;;;;4996155;28;20399;-76
2021/12/31 05:26:40;;;;;;;;;;;13.60;99.90;;;;;;4980259;28;19910;-76
2021/12/31 05:29:05;;;;;;;;;;;13.60;99.90;;;;;;4995724;28;19906;-76
2021/12/31 05:31:31;;;;;;;;;;;13.60;99.90;;;;;;4995792;28;19909;-77
2021/12/31 05:33:56;;;;;;;;;;;13.60;99.90;;;;;;4979591;28;19932;-76
2021/12/31 05:36:22;;;;;;;;;;;13.60;99.90;;;;;;4996668;28;19906;-76
2021/12/31 05:38:47;;;;;;;;;;;13.60;99.90;;;;;;4979671;28;19913;-76
2021/12/31 05:41:13;;;;;;;;;;;13.60;99.90;;;;;;4996143;28;19925;-76
2021/12/31 05:43:38;;;;;;;;;;;13.50;99.90;;;;;;4998538;28;20241;-76
2021/12/31 05:46:04;;;;;;;;;;;13.50;99.90;;;;;;5006039;28;19910;-76
2021/12/31 05:48:30;;;;;;;;;;;13.50;99.90;;;;;;4992340;28;19916;-77
2021/12/31 05:50:56;;;;;;;;;;;13.50;99.90;;;;;;5010120;28;19937;-75
2021/12/31 05:53:21;;;;;;;;;;;13.30;99.90;;;;;;5009846;28;19894;-82
2021/12/31 05:55:47;;;;;;;;;;;13.30;99.90;;;;;;4990614;28;19936;-76
2021/12/31 05:58:13;;;;;;;;;;;13.20;99.90;;;;;;4984231;28;20040;-76
2021/12/31 06:00:38;;;;;;;;;;;13.10;99.90;;;;;;4997463;28;19949;-79
2021/12/31 06:03:04;;;;;;;;;;;13.00;99.90;;;;;;4995882;28;19913;-77
2021/12/31 06:05:29;;;;;;;;;;;12.90;99.90;;;;;;4996877;28;19928;-78
2021/12/31 06:07:57;;;;;;;;;;;12.90;99.90;;;;;;4995596;28;19905;-78
2021/12/31 06:10:23;;;;;;;;;;;12.80;99.90;;;;;;4995181;28;19906;-81
2021/12/31 06:12:49;;;;;;;;;;;12.80;99.90;;;;;;4996544;28;19905;-79
2021/12/31 06:15:17;;;;;;;;;;;12.80;99.90;;;;;;4995441;28;19906;-78
2021/12/31 06:17:43;;;;;;;;;;;12.70;99.90;;;;;;4996063;28;19924;-78
2021/12/31 06:20:09;;;;;;;;;;;12.70;99.90;;;;;;4995165;28;20301;-78
2021/12/31 06:22:35;;;;;;;;;;;12.70;99.90;;;;;;4994756;28;19917;-79
2021/12/31 06:25:00;;;;;;;;;;;12.70;99.90;;;;;;4995250;28;20261;-78
2021/12/31 06:27:26;;;;;;;;;;;12.70;99.90;;;;;;4994835;28;20297;-79
2021/12/31 06:29:51;;;;;;;;;;;12.60;99.90;;;;;;4995258;28;19910;-78
2021/12/31 06:32:17;;;;;;;;;;;12.60;99.90;;;;;;4994399;28;19906;-78
2021/12/31 06:34:42;;;;;;;;;;;12.60;99.90;;;;;;4978526;28;19917;-78
2021/12/31 06:37:08;;;;;;;;;;;12.50;99.90;;;;;;4994773;28;19906;-79
2021/12/31 06:39:35;;;;;;;;;;;12.50;99.90;;;;;;4978619;28;20254;-78
2021/12/31 06:42:03;;;;;;;;;;;12.50;99.90;;;;;;4995226;28;19917;-78
2021/12/31 06:44:32;;;;;;;;;;;12.50;99.90;;;;;;4978975;28;19910;-79
2021/12/31 06:46:57;;;;;;;;;;;12.50;99.90;;;;;;4995559;28;20350;-78
2021/12/31 06:49:23;;;;;;;;;;;12.40;99.90;;;;;;4995314;28;19910;-79
2021/12/31 06:51:48;;;;;;;;;;;12.40;99.90;;;;;;4979281;28;19922;-79
2021/12/31 06:54:14;;;;;;;;;;;12.40;99.90;;;;;;4984488;28;19918;-79
2021/12/31 06:56:39;;;;;;;;;;;12.40;99.90;;;;;;5007470;28;19906;-79
2021/12/31 06:59:05;;;;;;;;;;;12.40;99.90;;;;;;4996668;28;19910;-79
2021/12/31 07:01:30;;;;;;;;;;;12.40;99.90;;;;;;5013838;28;19921;-82
2021/12/31 07:03:56;;;;;;;;;;;12.40;99.90;;;;;;4998766;28;19917;-80
2021/12/31 07:06:21;;;;;;;;;;;12.40;99.90;;;;;;5015401;28;19926;-81
2021/12/31 07:08:47;;;;;;;;;;;12.30;99.90;;;;;;5012773;28;19897;-80
2021/12/31 07:11:12;;;;;;;;;;;12.40;99.90;;;;;;4992806;28;19913;-78
2021/12/31 07:13:38;;;;;;;;;;;12.30;99.90;;;;;;4995214;28;19912;-79
2021/12/31 07:16:04;;;;;;;;;;;12.30;99.90;;;;;;4995624;28;20354;-79
2021/12/31 07:18:30;;;;;;;;;;;12.30;99.90;;;;;;4994420;28;19906;-82
2021/12/31 07:20:55;;;;;;;;;;;12.30;99.90;;;;;;4977961;28;19924;-79
2021/12/31 07:23:22;;;;;;;;;;;12.30;99.90;;;;;;4998960;28;20008;-79
2021/12/31 07:25:48;;;;;;;;;;;12.20;99.90;;;;;;4977907;28;19965;-79
2021/12/31 07:28:14;;;;;;;;;;;12.20;99.90;;;;;;4994040;28;19913;-79
2021/12/31 07:30:40;;;;;;;;;;;12.20;99.90;;;;;;4993910;28;19913;-79
2021/12/31 07:33:06;;;;;;;;;;;12.20;99.90;;;;;;4977666;28;19909;-79
2021/12/31 07:35:31;;;;;;;;;;;12.20;99.90;;;;;;4977857;28;19975;-82
2021/12/31 07:37:58;;;;;;;;;;;12.20;99.90;;;;;;4994033;28;20422;-80
2021/12/31 07:40:45;;;;;;;;;;;12.20;99.90;;;;;;4993310;28;19999;-79
2021/12/31 07:43:10;;;;;;;;;;;12.20;99.90;;;;;;4994250;28;19914;-79
2021/12/31 07:45:36;;;;;;;;;;;12.20;99.90;;;;;;4993289;28;20000;-80
2021/12/31 07:48:02;;;;;;;;;;;12.20;99.90;;;;;;4992989;28;20003;-79
2021/12/31 07:50:28;;;;;;;;;;;12.20;99.90;;;;;;4976628;28;19940;-79
2021/12/31 07:52:54;;;;;;;;;;;12.20;99.90;;;;;;4993366;28;19910;-79
2021/12/31 07:55:19;;;;;;;;;;;12.20;99.90;;;;;;4993010;28;19905;-79
2021/12/31 07:57:45;;;;;;;;;;;12.20;99.90;;;;;;4993915;28;20346;-80
2021/12/31 08:00:10;;;;;;;;;;;12.20;99.90;;;;;;4976850;28;20376;-79
2021/12/31 08:02:36;;;;;;;;;;;12.30;99.90;;;;;;4993169;28;20271;-82
2021/12/31 08:05:01;;;;;;;;;;;12.40;99.90;;;;;;4993005;28;20357;-79
2021/12/31 08:07:27;;;;;;;;;;;12.50;99.90;;;;;;4993728;28;19951;-79
2021/12/31 08:09:52;;;;;;;;;;;12.80;99.90;;;;;;4977016;28;20009;-79
2021/12/31 08:12:18;;;;;;;;;;;13.00;99.90;;;;;;4992938;28;20336;-80
2021/12/31 08:14:43;;;;;;;;;;;13.20;99.90;;;;;;4994611;28;20396;-80
2021/12/31 08:17:09;;;;;;;;;;;13.50;99.90;;;;;;4977855;28;20261;-79
2021/12/31 08:19:35;;;;;;;;;;;13.60;99.90;;;;;;4977930;28;19910;-79
2021/12/31 08:22:00;;;;;;;;;;;13.50;99.90;;;;;;4994944;28;19921;-80
2021/12/31 08:24:26;;;;;;;;;;;13.30;99.90;;;;;;4993608;28;20265;-79
2021/12/31 08:26:51;;;;;;;;;;;13.10;99.90;;;;;;4995166;28;20397;-80
2021/12/31 08:29:18;;;;;;;;;;;13.00;99.90;;;;;;4977703;28;20302;-78
2021/12/31 08:31:44;;;;;;;;;;;12.80;99.90;;;;;;4993879;28;19960;-80
2021/12/31 08:34:10;;;;;;;;;;;12.80;99.90;;;;;;4993349;28;19910;-78
2021/12/31 08:36:36;;;;;;;;;;;12.70;99.90;;;;;;4994418;28;20385;-79
2021/12/31 08:39:05;;;;;;;;;;;12.70;99.90;;;;;;4994349;28;19913;-79
2021/12/31 08:41:30;;;;;;;;;;;12.70;99.90;;;;;;4996634;28;19920;-81
2021/12/31 08:43:56;;;;;;;;;;;12.70;99.90;;;;;;5000293;28;19906;-80
2021/12/31 08:46:23;;;;;;;;;;;12.70;99.90;;;;;;5003113;28;19906;-81
2021/12/31 08:48:49;;;;;;;;;;;12.70;99.90;;;;;;5004932;28;19909;-80
2021/12/31 08:51:14;;;;;;;;;;;12.80;99.90;;;;;;5002237;28;19928;-79
2021/12/31 08:53:41;;;;;;;;;;;12.80;99.90;;;;;;5004645;28;19949;-84
2021/12/31 08:56:07;;;;;;;;;;;12.90;99.90;;;;;;5007396;28;19932;-79
2021/12/31 08:58:33;;;;;;;;;;;12.90;99.90;;;;;;5011901;28;20252;-79
2021/12/31 09:00:58;;;;;;;;;;;13.10;99.90;;;;;;5012689;28;19913;-80
2021/12/31 09:03:24;;;;;;;;;;;13.10;99.90;;;;;;4999919;28;20362;-79
2021/12/31 09:05:49;;;;;;;;;;;13.20;99.90;;;;;;4981551;28;20247;-79
2021/12/31 09:08:15;;;;;;;;;;;13.30;99.90;;;;;;4980576;28;20267;-79
2021/12/31 09:10:41;;;;;;;;;;;13.60;99.90;;;;;;4981945;28;20046;-81
2021/12/31 09:13:06;;;;;;;;;;;13.70;99.90;;;;;;4997361;28;20251;-80
2021/12/31 09:15:32;;;;;;;;;;;13.70;99.90;;;;;;4981227;28;19910;-79
2021/12/31 09:17:57;;;;;;;;;;;13.60;99.90;;;;;;4983622;28;19959;-82
2021/12/31 09:20:23;;;;;;;;;;;13.50;99.90;;;;;;5001103;28;19910;-80
2021/12/31 09:22:49;;;;;;;;;;;13.40;99.90;;;;;;5000323;28;20326;-81
2021/12/31 09:25:15;;;;;;;;;;;13.30;99.90;;;;;;4982835;28;19937;-81
2021/12/31 09:27:41;;;;;;;;;;;13.20;99.90;;;;;;4997219;28;19905;-80
2021/12/31 09:30:08;;;;;;;;;;;13.20;99.90;;;;;;4997384;28;19960;-80
2021/12/31 09:32:34;;;;;;;;;;;13.20;99.90;;;;;;4996651;28;19991;-80
2021/12/31 09:35:00;;;;;;;;;;;13.20;99.90;;;;;;4996791;28;20330;-79
2021/12/31 09:37:25;;;;;;;;;;;13.20;99.90;;;;;;4997876;28;19949;-79
2021/12/31 09:39:51;;;;;;;;;;;13.30;99.90;;;;;;4997263;28;20035;-80
2021/12/31 09:42:16;;;;;;;;;;;13.30;99.90;;;;;;4997339;28;20350;-79
2021/12/31 09:44:44;;;;;;;;;;;13.30;99.90;;;;;;4983720;28;19910;-79
2021/12/31 09:47:13;;;;;;;;;;;13.30;99.90;;;;;;4999379;28;19906;-79
2021/12/31 09:49:39;;;;;;;;;;;13.30;99.90;;;;;;4996903;28;19909;-79
2021/12/31 09:52:09;;;;;;;;;;;13.30;99.90;;;;;;4995350;28;19925;-78
2021/12/31 09:54:35;;;;;;;;;;;13.30;99.90;;;;;;4995538;28;19929;-79
2021/12/31 09:57:02;;;;;;;;;;;13.40;99.90;;;;;;4994441;28;19905;-78
2021/12/31 09:59:28;;;;;;;;;;;13.50;99.90;;;;;;4995225;28;19996;-79
2021/12/31 10:01:55;;;;;;;;;;;13.50;99.90;;;;;;4995833;28;19976;-78
2021/12/31 10:04:22;;;;;;;;;;;13.60;99.90;;;;;;4996212;28;19912;-79
2021/12/31 10:07:04;;;;;;;;;;;13.60;99.90;;;;;;4996223;28;19921;-81
2021/12/31 10:09:30;;;;;;;;;;;13.50;99.90;;;;;;4996020;28;20004;-81
2021/12/31 10:11:57;;;;;;;;;;;13.50;99.90;;;;;;4994860;28;20333;-81
2021/12/31 10:14:32;;;;;;;;;;;13.60;99.90;;;;;;4994610;28;19906;-80
2021/12/31 10:16:58;;;;;;;;;;;13.60;99.90;;;;;;4995806;28;19920;-80
2021/12/31 10:19:24;;;;;;;;;;;13.70;99.90;;;;;;4978508;28;20294;-80
2021/12/31 10:21:51;;;;;;;;;;;13.70;99.90;;;;;;4977855;28;19918;-84
2021/12/31 10:24:24;;;;;;;;;;;13.60;99.90;;;;;;4996295;28;20430;-80
2021/12/31 10:26:56;;;;;;;;;;;13.70;99.90;;;;;;4994699;28;19912;-83
2021/12/31 10:29:22;;;;;;;;;;;13.70;99.90;;;;;;4996302;28;20295;-79
2021/12/31 10:31:51;;;;;;;;;;;13.80;99.90;;;;;;4994152;28;19918;-81
2021/12/31 10:34:33;;;;;;;;;;;13.80;99.90;;;;;;4994579;28;19979;-81
2021/12/31 10:37:03;;;;;;;;;;;13.80;99.90;;;;;;4994186;28;19965;-80
2021/12/31 10:39:31;;;;;;;;;;;13.80;99.90;;;;;;4994224;28;19905;-80
2021/12/31 10:41:59;;;;;;;;;;;13.70;99.90;;;;;;4978009;28;19917;-80
2021/12/31 10:44:41;;;;;;;;;;;13.70;99.90;;;;;;4994120;28;19914;-80
2021/12/31 10:47:09;;;;;;;;;;;13.70;99.90;;;;;;4978865;28;19926;-80
2021/12/31 10:49:54;;;;;;;;;;;13.70;99.90;;;;;;4994458;28;19910;-80
2021/12/31 10:52:25;;;;;;;;;;;13.70;99.90;;;;;;4993890;28;20352;-80
2021/12/31 10:55:01;;;;;;;;;;;13.70;99.90;;;;;;4994065;28;19920;-80
2021/12/31 10:57:34;;;;;;;;;;;13.70;99.90;;;;;;4994160;28;19910;-80
2021/12/31 10:59:59;;;;;;;;;;;13.70;99.90;;;;;;4994192;28;19913;-79
2021/12/31 11:02:25;;;;;;;;;;;13.70;99.90;;;;;;4977559;28;19913;-78
2021/12/31 11:04:50;;;;;;;;;;;13.70;99.90;;;;;;4993589;28;19985;-79
2021/12/31 11:07:17;;;;;;;;;;;13.80;99.90;;;;;;4994684;28;19949;-79
2021/12/31 11:09:43;;;;;;;;;;;13.80;99.90;;;;;;4993719;28;19910;-79
2021/12/31 11:12:10;;;;;;;;;;;13.80;99.90;;;;;;4995062;28;19964;-79
2021/12/31 11:14:37;;;;;;;;;;;13.90;99.80;;;;;;4993408;28;19905;-78
2021/12/31 11:17:03;;;;;;;;;;;14.00;99.90;;;;;;4993928;28;19909;-79
2021/12/31 11:19:28;;;;;;;;;;;14.10;99.90;;;;;;4994945;28;20058;-79
2021/12/31 11:21:54;;;;;;;;;;;14.20;99.80;;;;;;4993244;28;19917;-83
2021/12/31 11:24:47;;;;;;;;;;;14.20;99.80;;;;;;4993282;28;19913;-79
2021/12/31 11:27:44;;;;;;;;;;;14.30;99.50;;;;;;4994295;28;19906;-79
2021/12/31 11:30:29;;;;;;;;;;;14.40;99.40;;;;;;4989009;28;20393;-79
2021/12/31 11:32:56;;;;;;;;;;;14.60;99.20;;;;;;4992840;28;19936;-78
2021/12/31 11:35:42;;;;;;;;;;;14.80;98.90;;;;;;4992932;28;19910;-77
2021/12/31 11:38:12;;;;;;;;;;;14.90;98.70;;;;;;4992777;28;19906;-78
2021/12/31 11:40:40;;;;;;;;;;;14.90;98.50;;;;;;4993125;28;19910;-79
2021/12/31 11:43:16;;;;;;;;;;;14.80;98.70;;;;;;4992604;28;20256;-79
2021/12/31 11:45:42;;;;;;;;;;;14.80;98.80;;;;;;4993944;28;19910;-78
2021/12/31 11:48:33;;;;;;;;;;;14.90;98.80;;;;;;4992714;28;19905;-79
2021/12/31 11:51:05;;;;;;;;;;;14.80;98.50;;;;;;4984792;28;19969;-83
2021/12/31 11:53:31;;;;;;;;;;;14.90;98.70;;;;;;4994117;28;19910;-79
2021/12/31 11:55:57;;;;;;;;;;;14.90;98.60;;;;;;4993175;28;20370;-79
2021/12/31 11:58:35;;;;;;;;;;;14.90;98.70;;;;;;4993417;28;19913;-81
2021/12/31 12:01:20;;;;;;;;;;;14.90;98.70;;;;;;4976948;28;19910;-81
2021/12/31 12:03:46;;;;;;;;;;;14.90;99.00;;;;;;4992789;28;20052;-80
2021/12/31 12:06:31;;;;;;;;;;;14.70;99.00;;;;;;4993083;28;19984;-80
2021/12/31 12:08:57;;;;;;;;;;;14.70;99.10;;;;;;4992440;28;19905;-81
2021/12/31 12:11:45;;;;;;;;;;;14.60;98.90;;;;;;4977445;28;19910;-80
2021/12/31 12:14:30;;;;;;;;;;;14.60;99.10;;;;;;4989823;28;19910;-80
2021/12/31 12:16:57;;;;;;;;;;;14.70;99.10;;;;;;4993319;28;20312;-81
2021/12/31 12:19:42;;;;;;;;;;;14.60;98.90;;;;;;4993582;28;20363;-80
2021/12/31 12:22:08;;;;;;;;;;;14.60;99.00;;;;;;4993096;28;20297;-81
2021/12/31 12:24:34;;;;;;;;;;;14.60;99.20;;;;;;4977223;28;19914;-80
2021/12/31 12:27:02;;;;;;;;;;;14.60;99.00;;;;;;4993990;28;19906;-80
2021/12/31 12:29:28;;;;;;;;;;;14.70;99.10;;;;;;4977198;28;20282;-80
2021/12/31 12:32:07;;;;;;;;;;;14.80;98.90;;;;;;4977195;28;19916;-79
2021/12/31 12:34:32;;;;;;;;;;;14.80;98.70;;;;;;4993731;28;19906;-81
2021/12/31 12:36:58;;;;;;;;;;;14.70;98.40;;;;;;4977273;28;19914;-79
2021/12/31 12:39:23;;;;;;;;;;;14.60;98.80;;;;;;4995761;28;19920;-81
2021/12/31 12:41:50;;;;;;;;;;;14.60;98.90;;;;;;4981384;28;19914;-80
2021/12/31 12:44:16;;;;;;;;;;;14.60;99.10;;;;;;4998534;28;19909;-80
2021/12/31 12:46:54;;;;;;;;;;;14.60;99.30;;;;;;4997600;28;19972;-79
2021/12/31 12:49:20;;;;;;;;;;;14.60;99.40;;;;;;4997176;28;19905;-80
2021/12/31 12:51:47;;;;;;;;;;;14.60;99.00;;;;;;4997068;28;19924;-81
2021/12/31 12:54:17;;;;;;;;;;;14.60;99.00;;;;;;4998606;28;20302;-80
2021/12/31 12:56:43;;;;;;;;;;;14.70;99.00;;;;;;4996823;28;20350;-79
2021/12/31 12:59:09;;;;;;;;;;;14.70;99.10;;;;;;4997126;28;19924;-82
2021/12/31 13:01:42;;;;;;;;;;;14.70;99.00;;;;;;4996993;28;19913;-79
2021/12/31 13:04:09;;;;;;;;;;;14.70;99.10;;;;;;4980721;28;19918;-84
2021/12/31 13:06:35;;;;;;;;;;;14.70;99.10;;;;;;4996777;28;20357;-80
2021/12/31 13:09:00;;;;;;;;;;;14.70;99.10;;;;;;4997485;28;20357;-81
2021/12/31 13:11:27;;;;;;;;;;;14.80;99.10;;;;;;4997217;28;19980;-80
2021/12/31 13:13:53;;;;;;;;;;;14.90;99.10;;;;;;4996748;28;19909;-81
2021/12/31 13:16:18;;;;;;;;;;;15.10;98.90;;;;;;4996961;28;19917;-81
2021/12/31 13:18:53;;;;;;;;;;;15.10;98.70;;;;;;4996549;28;19961;-81
2021/12/31 13:21:21;;;;;;;;;;;15.20;98.70;;;;;;4996539;28;20354;-82
2021/12/31 13:23:50;;;;;;;;;;;15.20;98.50;;;;;;4996529;28;19932;-81
2021/12/31 13:26:17;;;;;;;;;;;15.20;98.50;;;;;;4997439;28;19909;-81
2021/12/31 13:28:43;;;;;;;;;;;15.20;98.70;;;;;;4995895;28;19906;-81
2021/12/31 13:31:09;;;;;;;;;;;15.20;98.80;;;;;;4997440;28;19917;-79
2021/12/31 13:33:39;;;;;;;;;;;15.20;98.70;;;;;;4996304;28;19906;-81
2021/12/31 13:36:11;;;;;;;;;;;15.20;98.80;;;;;;4995948;28;20271;-82
2021/12/31 13:38:55;;;;;;;;;;;15.20;98.40;;;;;;4995934;28;20323;-80
2021/12/31 13:41:21;;;;;;;;;;;15.20;98.40;;;;;;4996094;28;19995;-80
2021/12/31 13:43:57;;;;;;;;;;;15.20;98.40;;;;;;4995934;28;19943;-79
2021/12/31 13:46:32;;;;;;;;;;;15.20;98.30;;;;;;4995459;28;19955;-80
2021/12/31 13:49:03;;;;;;;;;;;15.20;98.20;;;;;;4995600;28;19913;-80
2021/12/31 13:51:30;;;;;;;;;;;15.20;98.10;;;;;;4994867;28;19925;-80
2021/12/31 13:53:56;;;;;;;;;;;15.20;98.20;;;;;;4995414;28;19906;-80
2021/12/31 13:57:01;;;;;;;;;;;15.30;98.10;;;;;;4979255;28;20384;-80
2021/12/31 13:59:37;;;;;;;;;;;15.20;98.00;;;;;;4978126;28;20330;-82
2021/12/31 14:02:11;;;;;;;;;;;15.30;97.90;;;;;;4978686;28;19909;-80
2021/12/31 14:04:58;;;;;;;;;;;15.30;98.10;;;;;;4986732;28;19921;-81
2021/12/31 14:07:30;;;;;;;;;;;15.30;98.00;;;;;;4995770;28;19913;-80
2021/12/31 14:09:57;;;;;;;;;;;15.30;98.10;;;;;;4995444;28;19996;-80
2021/12/31 14:12:22;;;;;;;;;;;15.30;98.20;;;;;;4995089;28;19913;-81
2021/12/31 14:14:48;;;;;;;;;;;15.30;98.50;;;;;;4978841;28;19933;-80
2021/12/31 14:17:13;;;;;;;;;;;15.30;98.30;;;;;;4995666;28;19957;-80
2021/12/31 14:19:40;;;;;;;;;;;15.30;98.30;;;;;;4995059;28;19988;-81
2021/12/31 14:22:07;;;;;;;;;;;15.20;98.30;;;;;;4995073;28;19921;-80
2021/12/31 14:24:32;;;;;;;;;;;15.20;98.40;;;;;;4994745;28;19957;-81